Time;durP1;ratioP1;P1;durP2;ratioP2;P2;SDS_P1;SDS_P2;PMS_P1;PMS_P2;Temp;Humidity;BMP_temperature;BMP_pressure;BME280_temperature;BME280_humidity;BME280_pressure;Samples;Min_cycle;Max_cycle;Signal;HPM_P1;HPM_P2
2022/07/09 00:00:24;;;;;;;8.20;3.10;;;16.90;99.90;;;;;;5024532;28;20034;-64
2022/07/09 00:02:50;;;;;;;4.53;2.22;;;16.90;99.90;;;;;;5035995;28;20024;-64
2022/07/09 00:05:15;;;;;;;4.13;2.08;;;16.90;99.90;;;;;;5035595;28;20038;-64
2022/07/09 00:07:41;;;;;;;5.85;2.20;;;16.80;99.90;;;;;;5031612;28;20389;-64
2022/07/09 00:10:07;;;;;;;5.60;2.40;;;16.80;99.90;;;;;;5031703;28;20080;-64
2022/07/09 00:12:33;;;;;;;6.35;2.80;;;16.80;99.90;;;;;;5040979;28;20477;-64
2022/07/09 00:14:59;;;;;;;4.00;2.83;;;16.90;99.90;;;;;;5035427;28;20096;-64
2022/07/09 00:17:25;;;;;;;4.03;2.67;;;16.90;99.90;;;;;;5030518;28;20032;-64
2022/07/09 00:19:52;;;;;;;5.82;2.92;;;16.90;99.90;;;;;;5026057;28;20045;-64
2022/07/09 00:22:17;;;;;;;3.35;2.30;;;16.80;99.90;;;;;;5033627;28;20022;-65
2022/07/09 00:24:43;;;;;;;4.20;3.05;;;16.90;99.90;;;;;;5031256;28;20033;-64
2022/07/09 00:27:09;;;;;;;6.60;3.05;;;17.00;99.90;;;;;;5029604;28;20032;-65
2022/07/09 00:29:35;;;;;;;8.50;2.83;;;17.10;99.90;;;;;;5029338;28;20044;-65
2022/07/09 00:32:00;;;;;;;6.07;2.70;;;17.10;99.90;;;;;;5039506;28;20458;-64
2022/07/09 00:34:26;;;;;;;4.80;2.72;;;17.20;99.90;;;;;;5030924;28;20087;-65
2022/07/09 00:36:52;;;;;;;4.28;2.70;;;17.20;99.90;;;;;;5032062;28;20029;-64
2022/07/09 00:39:17;;;;;;;9.35;3.15;;;17.20;99.90;;;;;;5037391;28;20390;-64
2022/07/09 00:41:43;;;;;;;6.20;2.63;;;17.20;99.90;;;;;;5028222;28;20091;-64
2022/07/09 00:44:09;;;;;;;5.65;2.60;;;17.20;99.90;;;;;;5039769;28;20120;-64
2022/07/09 00:46:34;;;;;;;5.25;2.53;;;17.30;99.90;;;;;;5029438;28;20033;-64
2022/07/09 00:49:06;;;;;;;8.32;3.10;;;17.30;99.90;;;;;;5038190;28;20120;-64
2022/07/09 00:51:32;;;;;;;3.33;2.58;;;17.20;99.90;;;;;;5031303;28;20168;-64
2022/07/09 00:53:59;;;;;;;3.47;2.25;;;17.30;99.90;;;;;;5025256;28;20108;-64
2022/07/09 00:56:28;;;;;;;7.78;2.78;;;17.30;99.90;;;;;;5035568;28;20090;-64
2022/07/09 00:58:54;;;;;;;5.18;2.85;;;17.30;99.90;;;;;;5033907;28;20093;-64
2022/07/09 01:01:19;;;;;;;3.60;2.35;;;17.30;99.90;;;;;;5037379;28;20024;-64
2022/07/09 01:03:45;;;;;;;5.60;2.80;;;17.20;99.90;;;;;;5036679;28;20462;-64
2022/07/09 01:06:11;;;;;;;7.90;2.92;;;17.20;99.90;;;;;;5034781;28;20026;-64
2022/07/09 01:08:37;;;;;;;3.65;2.63;;;17.20;99.90;;;;;;5031549;28;20040;-64
2022/07/09 01:11:03;;;;;;;2.30;2.10;;;17.10;99.90;;;;;;5033068;28;20048;-65
2022/07/09 01:13:29;;;;;;;3.28;2.25;;;17.10;99.90;;;;;;5030113;28;20473;-64
2022/07/09 01:15:54;;;;;;;4.45;2.80;;;17.10;99.90;;;;;;5036040;28;20028;-64
2022/07/09 01:18:20;;;;;;;4.68;2.50;;;17.00;99.90;;;;;;5034081;28;20037;-63
2022/07/09 01:20:46;;;;;;;5.57;2.53;;;17.00;99.90;;;;;;5035327;28;20029;-64
2022/07/09 01:23:11;;;;;;;4.50;2.60;;;17.00;99.90;;;;;;5029313;28;20025;-63
2022/07/09 01:25:45;;;;;;;2.75;2.20;;;16.90;99.90;;;;;;5035591;28;20095;-64
2022/07/09 01:28:12;;;;;;;5.28;2.83;;;16.90;99.90;;;;;;5033669;28;20389;-63
2022/07/09 01:30:39;;;;;;;5.45;2.33;;;16.90;99.90;;;;;;5036483;28;20485;-64
2022/07/09 01:33:05;;;;;;;4.65;2.20;;;17.00;99.90;;;;;;5035921;28;20105;-64
2022/07/09 01:35:31;;;;;;;3.55;2.42;;;17.00;99.90;;;;;;5036657;28;20568;-64
2022/07/09 01:37:57;;;;;;;2.85;2.40;;;16.90;99.90;;;;;;5021942;28;20112;-63
2022/07/09 01:40:23;;;;;;;6.70;2.70;;;16.90;99.90;;;;;;5033773;28;20033;-64
2022/07/09 01:42:49;;;;;;;5.10;2.50;;;16.80;99.90;;;;;;5029257;28;20052;-63
2022/07/09 01:45:16;;;;;;;4.57;2.75;;;16.70;99.90;;;;;;5018408;28;20069;-64
2022/07/09 01:47:42;;;;;;;4.97;2.60;;;16.70;99.90;;;;;;5033471;28;20083;-64
2022/07/09 01:50:08;;;;;;;3.72;2.45;;;16.70;99.90;;;;;;5037361;28;20116;-64
2022/07/09 01:52:35;;;;;;;6.32;2.40;;;16.70;99.90;;;;;;5030991;28;20393;-64
2022/07/09 01:55:01;;;;;;;3.95;2.55;;;16.70;99.90;;;;;;5030352;28;20040;-64
2022/07/09 01:57:27;;;;;;;6.18;2.60;;;16.60;99.90;;;;;;5032918;28;20444;-63
2022/07/09 01:59:53;;;;;;;3.80;2.65;;;16.60;99.90;;;;;;5030444;28;20025;-64
2022/07/09 02:02:19;;;;;;;6.07;2.65;;;16.50;99.90;;;;;;5032788;28;20496;-64
2022/07/09 02:04:46;;;;;;;3.15;2.30;;;16.50;99.90;;;;;;5030811;28;20033;-63
2022/07/09 02:07:14;;;;;;;3.97;2.40;;;16.50;99.90;;;;;;5030046;28;20018;-64
2022/07/09 02:09:41;;;;;;;4.43;2.55;;;16.50;99.90;;;;;;5041731;28;20033;-64
2022/07/09 02:12:07;;;;;;;4.18;2.13;;;16.50;99.90;;;;;;5035783;28;20022;-63
2022/07/09 02:14:32;;;;;;;4.47;2.70;;;16.50;99.90;;;;;;5036899;28;20059;-64
2022/07/09 02:16:58;;;;;;;4.70;2.30;;;16.40;99.90;;;;;;5032880;28;20522;-63
2022/07/09 02:19:24;;;;;;;7.25;2.47;;;16.40;99.90;;;;;;5030411;28;20569;-64
2022/07/09 02:21:49;;;;;;;9.88;2.20;;;16.40;99.90;;;;;;5031872;28;20032;-64
2022/07/09 02:24:15;;;;;;;4.80;2.30;;;16.40;99.90;;;;;;5029632;28;20030;-64
2022/07/09 02:26:41;;;;;;;4.20;2.38;;;16.40;99.90;;;;;;5035604;28;20036;-64
2022/07/09 02:29:07;;;;;;;2.30;2.10;;;16.30;99.90;;;;;;5037547;28;20034;-66
2022/07/09 02:31:33;;;;;;;3.72;2.42;;;16.40;99.90;;;;;;5035614;28;20083;-64
2022/07/09 02:33:59;;;;;;;4.47;2.13;;;16.30;99.90;;;;;;5036244;28;20081;-64
2022/07/09 02:36:24;;;;;;;5.97;2.22;;;16.20;99.90;;;;;;5036096;28;20374;-64
2022/07/09 02:38:50;;;;;;;8.85;2.30;;;16.20;99.90;;;;;;5039483;28;20029;-64
2022/07/09 02:41:16;;;;;;;3.75;1.95;;;16.10;99.90;;;;;;5046116;28;20067;-64
2022/07/09 02:43:44;;;;;;;2.83;2.15;;;16.10;99.90;;;;;;5046201;28;20052;-64
2022/07/09 02:46:10;;;;;;;5.65;2.30;;;16.10;99.90;;;;;;5037017;28;20033;-64
2022/07/09 02:48:36;;;;;;;6.50;1.98;;;16.00;99.90;;;;;;5035263;28;20028;-65
2022/07/09 02:51:03;;;;;;;5.28;2.17;;;16.00;99.90;;;;;;5041235;28;20038;-64
2022/07/09 02:53:29;;;;;;;3.47;2.10;;;15.90;99.90;;;;;;5042753;28;20053;-64
2022/07/09 02:55:55;;;;;;;5.68;2.55;;;15.80;99.90;;;;;;5040226;28;20064;-64
2022/07/09 02:58:20;;;;;;;3.92;2.28;;;15.80;99.90;;;;;;5035158;28;20025;-64
2022/07/09 03:00:46;;;;;;;6.80;2.20;;;15.80;99.90;;;;;;5039804;28;20036;-64
2022/07/09 03:03:12;;;;;;;2.70;2.08;;;15.70;99.90;;;;;;5039782;28;20040;-64
2022/07/09 03:05:38;;;;;;;3.13;2.03;;;15.70;99.90;;;;;;5039263;28;20037;-64
2022/07/09 03:08:04;;;;;;;2.50;1.90;;;15.70;99.90;;;;;;5031893;28;20469;-64
2022/07/09 03:10:29;;;;;;;3.28;2.00;;;15.60;99.90;;;;;;5036194;28;20125;-64
2022/07/09 03:12:55;;;;;;;4.25;2.20;;;15.60;99.90;;;;;;5034163;28;20061;-64
2022/07/09 03:15:21;;;;;;;3.13;2.33;;;15.60;99.90;;;;;;5031184;28;20026;-64
2022/07/09 03:17:48;;;;;;;3.60;2.25;;;15.50;99.90;;;;;;5031279;28;20022;-65
2022/07/09 03:20:14;;;;;;;3.35;2.30;;;15.50;99.90;;;;;;5028411;28;20054;-66
2022/07/09 03:22:40;;;;;;;3.58;2.08;;;15.50;99.90;;;;;;5030901;28;20025;-65
2022/07/09 03:25:07;;;;;;;5.63;2.13;;;15.40;99.90;;;;;;5031565;28;20044;-64
2022/07/09 03:27:34;;;;;;;3.03;2.03;;;15.40;99.90;;;;;;5038558;28;20116;-64
2022/07/09 03:30:00;;;;;;;3.63;2.05;;;15.30;99.90;;;;;;5035349;28;20116;-65
2022/07/09 03:32:26;;;;;;;4.35;2.20;;;15.40;99.90;;;;;;5039896;28;20025;-64
2022/07/09 03:34:52;;;;;;;3.35;1.98;;;15.30;99.90;;;;;;5036790;28;20401;-64
2022/07/09 03:37:19;;;;;;;2.78;2.13;;;15.40;99.90;;;;;;5033903;28;20036;-63
2022/07/09 03:39:44;;;;;;;2.08;1.83;;;15.40;99.90;;;;;;5045494;28;20447;-66
2022/07/09 03:42:11;;;;;;;3.08;2.13;;;15.30;99.90;;;;;;5032272;28;20923;-63
2022/07/09 03:44:37;;;;;;;2.83;1.75;;;15.30;99.90;;;;;;5030886;28;20175;-63
2022/07/09 03:47:03;;;;;;;3.25;1.67;;;15.40;99.90;;;;;;5040254;28;20075;-63
2022/07/09 03:49:28;;;;;;;3.03;1.73;;;15.30;99.90;;;;;;5039510;28;20443;-63
2022/07/09 03:51:54;;;;;;;3.40;1.90;;;15.40;99.90;;;;;;5037114;28;20022;-63
2022/07/09 03:54:20;;;;;;;5.03;2.28;;;15.50;99.90;;;;;;5028631;28;20115;-64
2022/07/09 03:56:46;;;;;;;3.60;1.70;;;15.60;99.90;;;;;;5038641;28;20032;-64
2022/07/09 03:59:11;;;;;;;3.70;1.75;;;15.70;99.90;;;;;;5038863;28;20414;-64
2022/07/09 04:01:37;;;;;;;5.15;1.98;;;15.60;99.90;;;;;;5032932;28;20503;-64
2022/07/09 04:04:03;;;;;;;4.20;1.80;;;15.70;99.90;;;;;;5039580;28;20124;-64
2022/07/09 04:06:29;;;;;;;5.15;1.80;;;15.60;99.90;;;;;;5040060;28;20029;-64
2022/07/09 04:08:55;;;;;;;2.65;1.90;;;15.60;99.90;;;;;;5038593;28;20036;-64
2022/07/09 04:11:21;;;;;;;5.10;1.65;;;15.60;99.90;;;;;;5027847;28;20033;-64
2022/07/09 04:13:47;;;;;;;5.07;1.90;;;15.50;99.90;;;;;;5029155;28;20061;-64
2022/07/09 04:16:12;;;;;;;2.72;1.63;;;15.40;99.90;;;;;;5035533;28;20054;-63
2022/07/09 04:18:42;;;;;;;4.15;2.15;;;15.40;99.90;;;;;;5026647;28;20067;-64
2022/07/09 04:21:08;;;;;;;2.72;1.50;;;15.40;99.90;;;;;;5032303;28;20490;-64
2022/07/09 04:23:34;;;;;;;4.90;2.15;;;15.40;99.90;;;;;;5025740;28;20116;-64
2022/07/09 04:25:59;;;;;;;2.42;1.40;;;15.40;99.90;;;;;;5033652;28;20048;-63
2022/07/09 04:28:25;;;;;;;4.03;2.00;;;15.40;99.90;;;;;;5033301;28;20037;-63
2022/07/09 04:30:51;;;;;;;3.15;2.28;;;15.40;99.90;;;;;;5032032;28;20447;-63
2022/07/09 04:33:16;;;;;;;3.30;1.80;;;15.40;99.90;;;;;;5030779;28;20036;-64
2022/07/09 04:35:42;;;;;;;5.72;1.40;;;15.50;99.90;;;;;;5032842;28;20021;-63
2022/07/09 04:38:08;;;;;;;2.25;1.17;;;15.60;99.90;;;;;;5031359;28;20032;-63
2022/07/09 04:40:33;;;;;;;1.52;1.40;;;15.60;99.90;;;;;;5029531;28;20026;-63
2022/07/09 04:42:59;;;;;;;4.55;1.50;;;15.60;99.90;;;;;;5031188;28;20454;-63
2022/07/09 04:45:24;;;;;;;1.38;1.13;;;15.60;99.90;;;;;;5036573;28;20045;-63
2022/07/09 04:47:50;;;;;;;2.10;1.50;;;15.50;99.90;;;;;;5031213;28;20033;-63
2022/07/09 04:50:16;;;;;;;2.58;1.50;;;15.50;99.90;;;;;;5036876;28;20044;-63
2022/07/09 04:52:41;;;;;;;4.63;1.73;;;15.60;99.90;;;;;;5029437;28;20025;-63
2022/07/09 04:55:10;;;;;;;7.22;1.80;;;15.70;99.90;;;;;;5023816;28;20041;-64
2022/07/09 04:57:36;;;;;;;4.07;1.80;;;15.80;99.90;;;;;;5034953;28;20021;-64
2022/07/09 05:00:03;;;;;;;3.20;1.45;;;15.80;99.90;;;;;;5035568;28;20104;-63
2022/07/09 05:02:29;;;;;;;3.45;1.65;;;15.80;99.90;;;;;;5031943;28;20053;-64
2022/07/09 05:04:54;;;;;;;1.80;1.48;;;15.80;99.90;;;;;;5035399;28;20068;-64
2022/07/09 05:07:20;;;;;;;3.00;1.60;;;15.80;99.90;;;;;;5039639;28;20032;-63
2022/07/09 05:09:46;;;;;;;3.10;2.20;;;15.80;99.90;;;;;;5028878;28;20033;-64
2022/07/09 05:12:11;;;;;;;3.35;1.48;;;15.80;99.90;;;;;;5028470;28;20022;-64
2022/07/09 05:14:37;;;;;;;2.63;1.67;;;15.80;99.90;;;;;;5033722;28;20064;-64
2022/07/09 05:17:04;;;;;;;2.35;1.52;;;15.80;99.90;;;;;;5040026;28;20030;-64
2022/07/09 05:19:31;;;;;;;2.33;1.60;;;15.80;99.90;;;;;;5044572;28;20052;-64
2022/07/09 05:21:57;;;;;;;2.85;1.40;;;15.80;99.90;;;;;;5032935;28;20471;-63
2022/07/09 05:24:22;;;;;;;3.38;1.30;;;15.80;99.90;;;;;;5038743;28;20048;-64
2022/07/09 05:26:48;;;;;;;3.00;1.40;;;15.80;99.90;;;;;;5030740;28;20025;-64
2022/07/09 05:29:14;;;;;;;1.88;1.42;;;15.90;99.90;;;;;;5030393;28;20033;-64
2022/07/09 05:31:40;;;;;;;2.72;1.40;;;16.00;99.90;;;;;;5027044;28;20196;-65
2022/07/09 05:34:06;;;;;;;2.72;1.63;;;15.90;99.90;;;;;;5036710;28;20032;-64
2022/07/09 05:36:32;;;;;;;2.05;1.27;;;16.00;99.90;;;;;;5042258;28;20370;-64
2022/07/09 05:38:59;;;;;;;2.40;1.25;;;16.10;99.90;;;;;;5037393;28;20029;-64
2022/07/09 05:41:25;;;;;;;2.35;1.60;;;16.00;99.90;;;;;;5034343;28;20057;-65
2022/07/09 05:43:52;;;;;;;1.40;1.20;;;16.10;99.90;;;;;;5025165;28;20063;-64
2022/07/09 05:46:18;;;;;;;2.08;1.50;;;16.10;99.90;;;;;;5036515;28;20043;-64
2022/07/09 05:48:43;;;;;;;3.35;1.33;;;16.20;99.90;;;;;;5041028;28;20496;-64
2022/07/09 05:51:09;;;;;;;4.07;2.13;;;16.20;99.90;;;;;;5036302;28;20067;-64
2022/07/09 05:53:35;;;;;;;2.20;1.42;;;16.20;99.90;;;;;;5038654;28;20051;-64
2022/07/09 05:56:00;;;;;;;2.63;1.52;;;16.20;99.90;;;;;;5043742;28;20118;-63
2022/07/09 05:58:26;;;;;;;1.63;1.15;;;16.20;99.90;;;;;;5040181;28;20065;-63
2022/07/09 06:00:52;;;;;;;1.40;1.10;;;16.20;99.90;;;;;;5039472;28;20029;-64
2022/07/09 06:03:18;;;;;;;2.33;1.50;;;16.30;99.90;;;;;;5038311;28;20453;-63
2022/07/09 06:05:43;;;;;;;2.78;1.27;;;16.40;99.90;;;;;;5028686;28;20047;-65
2022/07/09 06:08:09;;;;;;;3.08;1.77;;;16.40;99.90;;;;;;5023523;28;20166;-65
2022/07/09 06:10:36;;;;;;;5.20;2.05;;;16.50;99.90;;;;;;5036606;28;20440;-66
2022/07/09 06:13:02;;;;;;;3.22;1.15;;;16.50;99.90;;;;;;5035394;28;20464;-63
2022/07/09 06:15:28;;;;;;;5.20;1.58;;;16.50;99.90;;;;;;5029869;28;20036;-63
2022/07/09 06:17:54;;;;;;;2.38;1.50;;;16.50;99.90;;;;;;5030787;28;20034;-62
2022/07/09 06:20:20;;;;;;;2.65;1.40;;;16.50;99.90;;;;;;5029115;28;20103;-63
2022/07/09 06:22:46;;;;;;;2.25;1.40;;;16.60;99.90;;;;;;5032064;28;20076;-64
2022/07/09 06:25:12;;;;;;;2.40;1.50;;;16.50;99.90;;;;;;5039359;28;20033;-64
2022/07/09 06:27:37;;;;;;;2.65;1.63;;;16.60;99.90;;;;;;5039025;28;20112;-63
2022/07/09 06:30:04;;;;;;;3.50;1.60;;;16.60;99.90;;;;;;5037185;28;20120;-64
2022/07/09 06:32:29;;;;;;;3.38;1.50;;;16.70;99.90;;;;;;5029376;28;20030;-65
2022/07/09 06:34:55;;;;;;;2.60;1.33;;;16.80;99.90;;;;;;5040858;28;20029;-64
2022/07/09 06:37:21;;;;;;;3.50;1.45;;;16.80;99.90;;;;;;5033495;28;20037;-64
2022/07/09 06:39:48;;;;;;;2.45;1.50;;;16.90;99.90;;;;;;5045798;28;20025;-64
2022/07/09 06:42:16;;;;;;;2.67;1.38;;;16.90;99.90;;;;;;5040731;28;20413;-64
2022/07/09 06:44:42;;;;;;;5.20;2.00;;;17.00;99.90;;;;;;5042309;28;20063;-64
2022/07/09 06:47:09;;;;;;;4.95;2.28;;;17.10;99.90;;;;;;5035123;28;20025;-63
2022/07/09 06:49:35;;;;;;;4.10;1.60;;;17.10;99.90;;;;;;5037205;28;20025;-63
2022/07/09 06:52:00;;;;;;;1.58;1.20;;;17.30;99.90;;;;;;5046404;28;20076;-64
2022/07/09 06:54:26;;;;;;;4.07;1.95;;;17.40;99.90;;;;;;5027994;28;20124;-64
2022/07/09 06:56:52;;;;;;;4.07;1.63;;;17.50;99.90;;;;;;5031019;28;20036;-65
2022/07/09 06:59:18;;;;;;;1.52;1.15;;;17.50;99.90;;;;;;5038883;28;20025;-64
2022/07/09 07:01:45;;;;;;;1.67;1.17;;;17.50;99.90;;;;;;5032870;28;20033;-63
2022/07/09 07:04:12;;;;;;;1.40;1.23;;;17.60;99.90;;;;;;5028672;28;20046;-64
2022/07/09 07:06:38;;;;;;;2.30;1.77;;;17.70;99.90;;;;;;5031902;28;20469;-64
2022/07/09 07:09:04;;;;;;;2.33;1.33;;;17.80;99.90;;;;;;5024596;28;20085;-63
2022/07/09 07:11:30;;;;;;;1.75;0.98;;;17.90;99.90;;;;;;5026839;28;20496;-64
2022/07/09 07:13:55;;;;;;;3.53;1.13;;;18.00;99.90;;;;;;5028707;28;20396;-64
2022/07/09 07:16:21;;;;;;;1.10;0.95;;;18.10;99.90;;;;;;5034078;28;20040;-64
2022/07/09 07:18:47;;;;;;;4.15;1.17;;;18.10;99.90;;;;;;5032296;28;20063;-63
2022/07/09 07:21:12;;;;;;;2.38;1.25;;;18.20;99.90;;;;;;5031471;28;20036;-65
2022/07/09 07:23:38;;;;;;;1.17;1.05;;;18.20;99.90;;;;;;5030227;28;20035;-64
2022/07/09 07:26:04;;;;;;;1.75;1.00;;;18.30;99.90;;;;;;5033795;28;20048;-64
2022/07/09 07:28:30;;;;;;;5.20;1.05;;;18.40;99.90;;;;;;5028966;28;20021;-64
2022/07/09 07:30:56;;;;;;;1.77;1.20;;;18.50;99.90;;;;;;5034070;28;20033;-64
2022/07/09 07:33:21;;;;;;;2.05;1.15;;;18.60;99.90;;;;;;5032236;28;20030;-64
2022/07/09 07:35:47;;;;;;;2.60;1.30;;;18.80;99.90;;;;;;5033120;28;20113;-64
2022/07/09 07:38:13;;;;;;;1.10;0.70;;;18.90;99.90;;;;;;5031581;28;20128;-62
2022/07/09 07:40:39;;;;;;;1.65;1.00;;;19.10;99.90;;;;;;5034618;28;20025;-63
2022/07/09 07:43:04;;;;;;;2.30;1.10;;;19.20;99.90;;;;;;5032129;28;20060;-63
2022/07/09 07:45:31;;;;;;;1.05;0.85;;;19.30;99.90;;;;;;5034718;28;20439;-63
2022/07/09 07:47:57;;;;;;;0.68;0.68;;;19.40;99.90;;;;;;5034367;28;20480;-63
2022/07/09 07:50:23;;;;;;;2.38;1.58;;;19.50;99.90;;;;;;5034793;28;20037;-64
2022/07/09 07:52:49;;;;;;;1.30;0.90;;;19.60;99.90;;;;;;5021938;28;20160;-63
2022/07/09 07:55:15;;;;;;;2.45;0.73;;;19.90;99.90;;;;;;5031692;28;20109;-62
2022/07/09 07:57:41;;;;;;;6.38;2.00;;;20.00;99.90;;;;;;5036163;28;20025;-65
2022/07/09 08:00:07;;;;;;;1.40;0.68;;;20.20;99.90;;;;;;5034545;28;20386;-64
2022/07/09 08:02:34;;;;;;;0.90;0.80;;;20.40;99.90;;;;;;5036565;28;20032;-64
2022/07/09 08:05:00;;;;;;;0.60;0.60;;;20.60;99.90;;;;;;5032532;28;20029;-64
2022/07/09 08:07:25;;;;;;;0.88;0.70;;;20.80;99.90;;;;;;5036489;28;20029;-63
2022/07/09 08:09:51;;;;;;;2.42;0.88;;;20.90;99.90;;;;;;5034936;28;20026;-63
2022/07/09 08:12:17;;;;;;;1.55;0.75;;;21.10;99.90;;;;;;5031745;28;20036;-64
2022/07/09 08:14:42;;;;;;;1.98;0.90;;;21.30;99.90;;;;;;5036636;28;20117;-63
2022/07/09 08:17:08;;;;;;;2.28;0.80;;;21.60;99.90;;;;;;5031396;28;20022;-68
2022/07/09 08:19:34;;;;;;;2.33;1.30;;;21.60;99.90;;;;;;5036358;28;20088;-65
2022/07/09 08:22:00;;;;;;;2.25;0.90;;;21.80;99.90;;;;;;5029660;28;20099;-65
2022/07/09 08:24:26;;;;;;;0.90;0.57;;;22.00;99.90;;;;;;5033177;28;20398;-65
2022/07/09 08:26:52;;;;;;;2.22;0.60;;;22.00;99.90;;;;;;5015673;28;20025;-65
2022/07/09 08:29:18;;;;;;;0.60;0.50;;;22.00;99.90;;;;;;5027443;28;20112;-66
2022/07/09 08:31:44;;;;;;;1.67;0.60;;;22.30;99.90;;;;;;5026777;28;20030;-65
2022/07/09 08:34:09;;;;;;;1.52;0.65;;;22.20;99.90;;;;;;5027770;28;20026;-65
2022/07/09 08:36:35;;;;;;;0.60;0.50;;;22.30;99.90;;;;;;5041900;28;20033;-63
2022/07/09 08:39:01;;;;;;;1.85;0.50;;;22.20;99.90;;;;;;5031830;28;20067;-63
2022/07/09 08:41:26;;;;;;;0.85;0.60;;;22.50;99.90;;;;;;5035308;28;20133;-62
2022/07/09 08:43:53;;;;;;;0.80;0.68;;;22.50;99.90;;;;;;5035744;28;20496;-63
2022/07/09 08:46:19;;;;;;;2.92;0.65;;;22.30;99.90;;;;;;5038675;28;20033;-62
2022/07/09 08:48:45;;;;;;;1.63;1.10;;;22.30;99.90;;;;;;5038468;28;20052;-64
2022/07/09 08:51:15;;;;;;;3.28;1.00;;;22.30;99.90;;;;;;5029438;28;20018;-67
2022/07/09 08:53:42;;;;;;;2.35;0.85;;;22.60;99.90;;;;;;5035995;28;20036;-64
2022/07/09 08:56:09;;;;;;;1.33;0.63;;;22.80;99.90;;;;;;5039759;28;20028;-64
2022/07/09 08:58:34;;;;;;;1.05;0.40;;;22.70;99.90;;;;;;5039702;28;20025;-65
2022/07/09 09:01:00;;;;;;;2.40;0.85;;;22.60;99.90;;;;;;5037969;28;20033;-65
2022/07/09 09:03:26;;;;;;;2.20;0.45;;;22.40;99.90;;;;;;5038726;28;20021;-63
2022/07/09 09:06:06;;;;;;;0.60;0.50;;;22.50;99.90;;;;;;5040016;28;20040;-64
2022/07/09 09:08:36;;;;;;;1.38;0.80;;;22.50;99.90;;;;;;5039198;28;20026;-64
2022/07/09 09:11:04;;;;;;;0.77;0.57;;;22.50;99.90;;;;;;5038421;28;20028;-64
2022/07/09 09:13:30;;;;;;;0.50;0.50;;;22.60;99.90;;;;;;5032731;28;20033;-64
2022/07/09 09:16:09;;;;;;;1.10;0.60;;;22.60;99.90;;;;;;5030628;28;20041;-64
2022/07/09 09:18:49;;;;;;;1.55;0.73;;;22.60;99.90;;;;;;5038839;28;20124;-64
2022/07/09 09:21:18;;;;;;;0.80;0.50;;;22.70;99.90;;;;;;5042244;28;20040;-64
2022/07/09 09:23:45;;;;;;;1.80;0.50;;;22.90;99.90;;;;;;5022903;28;20030;-65
2022/07/09 09:26:16;;;;;;;0.50;0.50;;;23.10;99.90;;;;;;5030589;28;20505;-63
2022/07/09 09:28:50;;;;;;;0.60;0.50;;;23.10;99.90;;;;;;5034443;28;20013;-64
2022/07/09 09:31:50;;;;;;;2.85;0.55;;;23.10;99.90;;;;;;5033157;28;20116;-64
2022/07/09 09:34:17;;;;;;;0.52;0.50;;;23.00;99.90;;;;;;5030585;28;20101;-65
2022/07/09 09:36:51;;;;;;;0.73;0.55;;;23.00;99.90;;;;;;5040559;28;20054;-65
2022/07/09 09:39:31;;;;;;;1.77;1.00;;;23.10;99.90;;;;;;5036489;28;20033;-66
2022/07/09 09:41:59;;;;;;;1.88;0.52;;;23.00;99.90;;;;;;5035861;28;20024;-64
2022/07/09 09:44:28;;;;;;;0.88;0.70;;;23.30;99.90;;;;;;5048433;28;20044;-63
2022/07/09 09:46:55;;;;;;;0.70;0.70;;;23.60;99.90;;;;;;5044131;28;20028;-64
2022/07/09 09:49:21;;;;;;;1.30;0.70;;;23.80;99.90;;;;;;5041901;28;20037;-64
2022/07/09 09:52:00;;;;;;;0.43;0.43;;;24.20;99.90;;;;;;5036198;28;20175;-64
2022/07/09 09:54:25;;;;;;;0.28;0.28;;;24.10;99.90;;;;;;5021973;28;20036;-65
2022/07/09 09:56:53;;;;;;;0.65;0.60;;;23.70;99.90;;;;;;5030252;28;20025;-64
2022/07/09 09:59:20;;;;;;;1.10;0.40;;;23.60;99.90;;;;;;5029409;28;20156;-64
2022/07/09 10:01:46;;;;;;;0.70;0.70;;;23.60;99.90;;;;;;5036905;28;20025;-64
2022/07/09 10:04:14;;;;;;;2.20;0.60;;;23.60;99.90;;;;;;5021331;28;20033;-65
2022/07/09 10:06:41;;;;;;;0.50;0.50;;;23.70;99.90;;;;;;5031922;28;20104;-65
2022/07/09 10:09:07;;;;;;;0.68;0.50;;;23.60;99.90;;;;;;5031185;28;20032;-64
2022/07/09 10:11:43;;;;;;;1.85;0.50;;;23.70;99.90;;;;;;5031805;28;20033;-65
2022/07/09 10:14:15;;;;;;;2.10;0.70;;;23.90;99.90;;;;;;5031780;28;20135;-65
2022/07/09 10:16:41;;;;;;;1.75;0.50;;;24.00;99.90;;;;;;5033538;28;20028;-65
2022/07/09 10:19:07;;;;;;;1.13;0.70;;;23.60;99.90;;;;;;5031884;28;20045;-65
2022/07/09 10:21:42;;;;;;;2.55;0.95;;;24.00;99.90;;;;;;5037503;28;20032;-65
2022/07/09 10:24:09;;;;;;;0.65;0.60;;;24.10;99.90;;;;;;5033293;28;20030;-65
2022/07/09 10:26:43;;;;;;;0.98;0.73;;;24.30;99.90;;;;;;5032516;28;20045;-65
2022/07/09 10:29:28;;;;;;;1.92;1.02;;;24.40;99.90;;;;;;5042854;28;20029;-65
2022/07/09 10:31:55;;;;;;;0.98;0.57;;;24.20;99.90;;;;;;5037384;28;20408;-65
2022/07/09 10:34:41;;;;;;;0.60;0.50;;;23.70;99.90;;;;;;5035276;28;20124;-65
2022/07/09 10:37:07;;;;;;;2.00;0.60;;;23.80;99.90;;;;;;5036004;28;20055;-65
2022/07/09 10:39:33;;;;;;;1.10;0.80;;;23.90;99.90;;;;;;5045111;28;20025;-65
2022/07/09 10:42:00;;;;;;;1.35;0.90;;;24.10;99.90;;;;;;5042559;28;20029;-65
2022/07/09 10:44:27;;;;;;;2.08;0.57;;;24.20;99.90;;;;;;5047651;28;20048;-65
2022/07/09 10:46:57;;;;;;;2.05;1.10;;;24.10;99.90;;;;;;5034978;28;20041;-65
2022/07/09 10:49:23;;;;;;;3.67;0.52;;;24.20;99.90;;;;;;5037082;28;20029;-64
2022/07/09 10:51:49;;;;;;;2.47;0.85;;;24.20;99.90;;;;;;5044049;28;20021;-65
2022/07/09 10:54:16;;;;;;;2.17;1.10;;;24.70;99.90;;;;;;5045722;28;20033;-65
2022/07/09 10:56:42;;;;;;;1.33;0.95;;;25.10;99.70;;;;;;5022444;28;20377;-64
2022/07/09 10:59:07;;;;;;;1.67;0.93;;;25.10;98.60;;;;;;5028519;28;20022;-64
2022/07/09 11:01:33;;;;;;;0.60;0.60;;;24.40;99.20;;;;;;5041947;28;20029;-65
2022/07/09 11:03:59;;;;;;;1.48;0.90;;;24.20;99.70;;;;;;5033386;28;20030;-65
2022/07/09 11:06:25;;;;;;;1.83;1.00;;;24.20;99.90;;;;;;5044852;28;20036;-65
2022/07/09 11:08:50;;;;;;;2.10;1.10;;;24.40;99.10;;;;;;5043582;28;20076;-65
2022/07/09 11:11:25;;;;;;;1.52;0.90;;;24.80;99.20;;;;;;5033441;28;20032;-65
2022/07/09 11:13:52;;;;;;;1.02;0.93;;;25.40;97.40;;;;;;5028618;28;20028;-64
2022/07/09 11:16:26;;;;;;;1.77;1.00;;;25.30;96.70;;;;;;5043466;28;20473;-64
2022/07/09 11:18:53;;;;;;;1.35;0.77;;;25.50;96.80;;;;;;5034144;28;20050;-64
2022/07/09 11:21:25;;;;;;;1.33;1.00;;;25.80;95.40;;;;;;5044262;28;20032;-66
2022/07/09 11:23:51;;;;;;;1.75;1.27;;;25.80;95.30;;;;;;5026244;28;20037;-64
2022/07/09 11:26:17;;;;;;;2.97;1.13;;;25.50;96.10;;;;;;5038853;28;20041;-66
2022/07/09 11:28:45;;;;;;;2.20;1.38;;;25.70;96.90;;;;;;5036443;28;20021;-64
2022/07/09 11:31:11;;;;;;;0.90;0.80;;;25.80;95.70;;;;;;5046271;28;20040;-65
2022/07/09 11:36:21;;;;;;;2.00;1.05;;;26.30;93.40;;;;;;5029665;28;20092;-66
2022/07/09 11:38:51;;;;;;;1.10;1.00;;;26.00;95.30;;;;;;5037946;28;20049;-66
2022/07/09 11:41:16;;;;;;;1.15;0.88;;;26.00;94.50;;;;;;5042766;28;20104;-66
2022/07/09 11:43:49;;;;;;;2.33;1.00;;;25.70;94.90;;;;;;5037552;28;20503;-66
2022/07/09 11:46:19;;;;;;;2.35;1.10;;;26.20;94.30;;;;;;5036861;28;20376;-65
2022/07/09 11:48:55;;;;;;;1.95;0.90;;;27.00;93.70;;;;;;5041897;28;20033;-65
2022/07/09 11:51:46;;;;;;;1.50;0.98;;;27.60;91.40;;;;;;5042146;28;20112;-66
2022/07/09 11:54:12;;;;;;;1.08;0.98;;;27.40;90.70;;;;;;5030365;28;20048;-66
2022/07/09 11:56:47;;;;;;;1.90;1.25;;;26.80;91.30;;;;;;5032489;28;20021;-65
2022/07/09 11:59:13;;;;;;;1.05;0.85;;;26.80;91.70;;;;;;5042840;28;20377;-65
2022/07/09 12:01:39;;;;;;;1.38;1.00;;;26.30;91.20;;;;;;5032149;28;20041;-65
2022/07/09 12:04:05;;;;;;;1.70;0.90;;;26.40;91.70;;;;;;5022987;28;20195;-64
2022/07/09 12:06:32;;;;;;;1.75;0.95;;;26.50;91.40;;;;;;5041044;28;20108;-64
2022/07/09 12:09:04;;;;;;;1.95;0.90;;;27.00;90.50;;;;;;5035322;28;20031;-66
2022/07/09 12:11:31;;;;;;;2.55;0.77;;;28.30;85.90;;;;;;5038770;28;20025;-65
2022/07/09 12:13:57;;;;;;;1.25;1.10;;;29.10;82.70;;;;;;5033666;28;20041;-64
2022/07/09 12:16:24;;;;;;;3.08;0.90;;;29.10;80.90;;;;;;5038322;28;20927;-64
2022/07/09 12:18:49;;;;;;;1.38;1.08;;;29.30;79.30;;;;;;5032605;28;20049;-64
2022/07/09 12:21:15;;;;;;;1.35;1.10;;;29.30;77.80;;;;;;5041040;28;20039;-66
2022/07/09 12:23:41;;;;;;;3.08;1.48;;;29.40;75.60;;;;;;5030505;28;20074;-66
2022/07/09 12:26:07;;;;;;;1.95;1.00;;;29.80;74.70;;;;;;5032732;28;20048;-65
2022/07/09 12:28:32;;;;;;;0.88;0.88;;;30.00;73.10;;;;;;5035829;28;20026;-65
2022/07/09 12:30:58;;;;;;;1.67;1.33;;;30.00;74.20;;;;;;5033645;28;20124;-65
2022/07/09 12:33:24;;;;;;;1.65;1.20;;;29.10;75.10;;;;;;5030246;28;20057;-65
2022/07/09 12:35:49;;;;;;;3.03;1.33;;;28.50;76.30;;;;;;5037979;28;20112;-64
2022/07/09 12:38:15;;;;;;;1.65;1.08;;;29.00;74.70;;;;;;5031979;28;20076;-65
2022/07/09 12:40:41;;;;;;;2.60;1.30;;;29.60;72.00;;;;;;5038671;28;20044;-64
2022/07/09 12:43:06;;;;;;;1.20;0.93;;;29.90;70.60;;;;;;5033411;28;20116;-65
2022/07/09 12:45:32;;;;;;;1.58;1.00;;;29.20;72.70;;;;;;5033942;28;20041;-65
2022/07/09 12:47:58;;;;;;;2.47;0.95;;;29.10;74.90;;;;;;5033202;28;20025;-65